Time;durP1;ratioP1;P1;durP2;ratioP2;P2;SDS_P1;SDS_P2;PMS_P1;PMS_P2;Temp;Humidity;BMP_temperature;BMP_pressure;BME280_temperature;BME280_humidity;BME280_pressure;Samples;Min_cycle;Max_cycle;Signal;HPM_P1;HPM_P2
2022/08/22 00:02:44;;;;;;;9.82;4.45;;;;;;;15.67;100.00;164663.13;4993707;28;20393;-63
2022/08/22 00:05:43;;;;;;;10.95;4.60;;;;;;;15.65;100.00;164659.03;4985700;28;20038;-63
2022/08/22 00:08:26;;;;;;;7.50;3.65;;;;;;;15.64;100.00;164654.97;4994101;28;20431;-63
2022/08/22 00:11:24;;;;;;;9.27;4.15;;;;;;;15.64;100.00;164654.97;4990152;28;20042;-63
2022/08/22 00:14:31;;;;;;;9.00;3.75;;;;;;;15.67;100.00;164663.13;4992789;28;20042;-62
2022/08/22 00:17:01;;;;;;;14.13;6.25;;;;;;;15.73;100.00;164677.97;4986661;28;20030;-63
2022/08/22 00:19:50;;;;;;;7.30;4.30;;;;;;;15.78;100.00;164692.88;4992374;28;20080;-63
2022/08/22 00:22:51;;;;;;;9.15;4.82;;;;;;;15.81;100.00;164701.03;4991845;28;20109;-63
2022/08/22 00:25:53;;;;;;;8.55;4.63;;;;;;;15.79;100.00;164694.22;4968926;28;20403;-63
2022/08/22 00:28:40;;;;;;;8.52;4.13;;;;;;;15.76;100.00;164687.47;4989505;28;20030;-61
2022/08/22 00:31:16;;;;;;;7.45;4.13;;;;;;;15.71;100.00;164673.94;4992359;28;20047;-61
2022/08/22 00:33:50;;;;;;;10.52;4.43;;;;;;;15.71;100.00;164673.94;4993955;28;20030;-62
2022/08/22 00:36:37;;;;;;;9.18;4.88;;;;;;;15.71;100.00;164673.94;4992966;28;20039;-61
2022/08/22 00:39:16;;;;;;;9.60;4.88;;;;;;;15.71;100.00;164673.94;4992434;28;20026;-61
2022/08/22 00:42:00;;;;;;;12.73;4.07;;;;;;;15.71;100.00;164673.94;4993748;28;20040;-60
2022/08/22 00:44:47;;;;;;;17.50;6.35;;;;;;;15.70;100.00;164671.22;4973003;28;20047;-61
2022/08/22 00:47:37;;;;;;;7.97;3.80;;;;;;;15.72;100.00;164676.66;4974531;28;20054;-61
2022/08/22 00:50:20;;;;;;;14.35;4.43;;;;;;;15.72;100.00;164676.66;4979000;28;20097;-61
2022/08/22 00:52:58;;;;;;;13.05;4.68;;;;;;;15.74;100.00;164680.69;4993078;28;20041;-61
2022/08/22 00:55:35;;;;;;;7.15;4.28;;;;;;;15.74;100.00;164682.06;4992390;28;20445;-61
2022/08/22 00:58:14;;;;;;;16.08;5.07;;;;;;;15.70;100.00;164671.22;4993977;28;20033;-60
2022/08/22 01:00:52;;;;;;;11.73;4.57;;;;;;;15.68;100.00;164667.16;4991592;28;20073;-61
2022/08/22 01:03:33;;;;;;;11.60;3.38;;;;;;;15.69;100.00;164668.50;4993751;28;20383;-61
2022/08/22 01:06:17;;;;;;;4.90;3.38;;;;;;;15.69;100.00;164669.88;4991865;28;20073;-62
2022/08/22 01:09:00;;;;;;;5.13;3.35;;;;;;;15.71;100.00;164675.25;4993060;28;20635;-62
2022/08/22 01:11:40;;;;;;;14.73;3.97;;;;;;;15.77;100.00;164690.16;4991798;28;20045;-62
2022/08/22 01:14:25;;;;;;;14.18;4.70;;;;;;;15.78;100.00;164692.88;4991931;28;20129;-62
2022/08/22 01:16:57;;;;;;;9.07;3.83;;;;;;;15.82;100.00;164703.69;4972654;28;20042;-62
2022/08/22 01:20:04;;;;;;;8.57;4.70;;;;;;;15.81;100.00;164701.03;4991779;28;20066;-62
2022/08/22 01:23:16;;;;;;;7.80;3.70;;;;;;;15.78;100.00;164692.88;4992941;28;20037;-62
2022/08/22 01:26:00;;;;;;;10.30;3.88;;;;;;;15.75;100.00;164684.75;4991213;28;20042;-61
2022/08/22 01:28:50;;;;;;;11.68;4.35;;;;;;;15.77;100.00;164688.84;4991889;28;20030;-62
2022/08/22 01:31:32;;;;;;;18.17;5.70;;;;;;;15.78;100.00;164692.88;4989002;28;20054;-61
2022/08/22 01:34:18;;;;;;;17.83;5.72;;;;;;;15.81;100.00;164701.03;4989560;28;20037;-60
2022/08/22 01:37:11;;;;;;;11.50;5.03;;;;;;;15.81;100.00;164701.03;4990719;28;20057;-61
2022/08/22 01:40:02;;;;;;;13.00;4.50;;;;;;;15.74;100.00;164682.06;4990427;28;20034;-61
2022/08/22 01:42:59;;;;;;;11.40;4.35;;;;;;;15.67;100.00;164663.13;4991495;28;20034;-61
2022/08/22 01:45:57;;;;;;;8.47;5.37;;;;;;;15.65;100.00;164657.69;4972988;28;20034;-61
2022/08/22 01:48:38;;;;;;;9.38;5.22;;;;;;;15.61;100.00;164646.84;4991006;28;20470;-61
2022/08/22 01:51:21;;;;;;;10.93;4.43;;;;;;;15.49;100.00;164617.06;4989515;28;20042;-61
2022/08/22 01:53:56;;;;;;;13.40;4.30;;;;;;;15.43;100.00;164600.84;4991337;28;20030;-62
2022/08/22 01:56:24;;;;;;;8.27;4.32;;;;;;;15.33;100.00;164573.75;4989577;28;20100;-62
2022/08/22 01:59:20;;;;;;;8.25;5.03;;;;;;;15.23;100.00;164549.38;4992021;28;20070;-62
2022/08/22 02:01:49;;;;;;;15.20;4.80;;;;;;;15.09;100.00;164511.47;4989725;28;20051;-62
2022/08/22 02:04:18;;;;;;;;;;;;;;;15.01;100.00;164489.81;4986183;28;20038;-61
2022/08/22 02:07:06;;;;;;;13.73;5.85;;;;;;;14.91;100.00;164464.09;4990909;28;19913;-62
2022/08/22 02:09:45;;;;;;;9.25;5.00;;;;;;;14.80;100.00;164434.34;4990172;28;20647;-61
2022/08/22 02:12:32;;;;;;;11.70;4.65;;;;;;;14.71;100.00;164411.31;4991842;28;20022;-61
2022/08/22 02:15:13;;;;;;;14.43;5.60;;;;;;;14.65;100.00;164395.03;4988299;28;20050;-62
2022/08/22 02:18:01;;;;;;;18.27;6.07;;;;;;;14.58;100.00;164377.47;4989921;28;20060;-62
2022/08/22 02:21:10;;;;;;;13.10;5.68;;;;;;;14.44;100.00;164342.25;4989367;28;20041;-60
2022/08/22 02:23:48;;;;;;;11.95;5.10;;;;;;;14.35;100.00;164316.56;4989291;28;20539;-62
2022/08/22 02:26:36;;;;;;;16.42;6.35;;;;;;;14.24;100.00;164289.53;4987658;28;20050;-62
2022/08/22 02:29:12;;;;;;;10.50;6.30;;;;;;;14.19;100.00;164274.66;4988183;28;20026;-61
2022/08/22 02:31:47;;;;;;;10.70;6.35;;;;;;;14.14;100.00;164262.47;4990616;28;20109;-62
2022/08/22 02:34:35;;;;;;;10.35;5.65;;;;;;;14.14;100.00;164262.47;4987629;28;20088;-61
2022/08/22 02:37:58;;;;;;;7.72;5.68;;;;;;;14.14;100.00;164262.47;4991539;28;20104;-61
2022/08/22 02:40:42;;;;;;;7.88;5.85;;;;;;;-146.58;100.00;69501.63;4925590;29;20130;-61
2022/08/22 02:43:23;;;;;;;15.43;6.88;;;;;;;-146.58;100.00;69501.63;4930279;29;20039;-61
2022/08/22 02:46:00;;;;;;;6.65;4.40;;;;;;;-146.58;100.00;69501.63;4978203;28;20142;-62
2022/08/22 02:48:30;;;;;;;16.20;6.63;;;;;;;-146.58;100.00;69501.63;4991172;28;20144;-63
2022/08/22 02:51:01;;;;;;;9.60;5.18;;;;;;;-146.58;100.00;69501.63;4986935;28;20402;-62
2022/08/22 02:53:45;;;;;;;7.88;7.07;;;;;;;-146.58;100.00;69501.63;4991412;28;20355;-62
2022/08/22 02:56:30;;;;;;;8.80;5.05;;;;;;;-146.58;100.00;69501.63;4989639;28;20034;-62
2022/08/22 02:59:26;;;;;;;8.00;5.15;;;;;;;-146.58;100.00;69501.63;4987457;28;20014;-62
2022/08/22 03:01:53;;;;;;;10.93;6.72;;;;;;;-146.58;100.00;69501.63;4990575;28;20054;-62
2022/08/22 03:04:31;;;;;;;13.05;8.07;;;;;;;-146.58;100.00;69501.63;4989748;28;20406;-62
2022/08/22 03:07:20;;;;;;;12.30;8.57;;;;;;;-146.58;100.00;69501.63;4988815;28;20038;-62
2022/08/22 03:10:12;;;;;;;20.60;8.88;;;;;;;-146.58;100.00;69501.63;4988476;28;20064;-63
2022/08/22 03:12:41;;;;;;;8.48;5.10;;;;;;;14.14;100.00;162120.97;4990867;28;20086;-64
2022/08/22 03:15:25;;;;;;;7.32;5.28;;;;;;;-146.58;100.00;69501.63;4989795;28;20100;-64
2022/08/22 03:18:16;;;;;;;4.93;4.03;;;;;;;-146.58;100.00;69501.63;4990352;28;20034;-64
2022/08/22 03:21:12;;;;;;;6.00;4.65;;;;;;;-146.58;100.00;69501.63;4987457;28;20038;-64
2022/08/22 03:23:41;;;;;;;6.60;4.65;;;;;;;-146.58;100.00;69501.63;4990517;28;20030;-64
2022/08/22 03:26:16;;;;;;;6.40;5.78;;;;;;;-146.58;100.00;69501.63;4989392;28;20037;-64
2022/08/22 03:28:47;;;;;;;10.60;6.32;;;;;;;-146.58;100.00;69501.63;4993755;28;20037;-64
2022/08/22 03:31:19;;;;;;;8.02;6.38;;;;;;;-146.58;100.00;69501.63;4991131;28;20070;-64
2022/08/22 03:34:20;;;;;;;7.70;6.75;;;;;;;-146.58;100.00;69501.63;4994589;28;20097;-64
2022/08/22 03:37:13;;;;;;;9.85;5.55;;;;;;;-146.58;100.00;69501.63;4992254;28;20039;-64
2022/08/22 03:40:01;;;;;;;12.38;7.10;;;;;;;-146.58;100.00;69501.63;4995258;28;20501;-64
2022/08/22 03:42:58;;;;;;;12.45;7.45;;;;;;;-146.58;100.00;69501.63;4973945;28;20046;-62
2022/08/22 03:45:42;;;;;;;13.65;6.72;;;;;;;-146.58;100.00;69501.63;4979016;28;20085;-62
2022/08/22 03:48:42;;;;;;;19.27;6.78;;;;;;;-146.58;100.00;69501.63;4995146;28;20069;-62
2022/08/22 03:51:21;;;;;;;12.25;8.30;;;;;;;-146.58;100.00;69501.63;4993081;28;20046;-60
2022/08/22 03:54:05;;;;;;;12.95;7.55;;;;;;;-146.58;100.00;69501.63;4994793;28;20129;-60
2022/08/22 03:57:07;;;;;;;13.43;4.97;;;;;;;-146.58;100.00;69501.63;4993297;28;20514;-61
2022/08/22 04:00:13;;;;;;;13.00;6.53;;;;;;;-146.58;100.00;69501.63;4994400;28;20026;-61
2022/08/22 04:03:03;;;;;;;14.10;5.70;;;;;;;-146.58;100.00;69501.63;4993297;28;20047;-60
2022/08/22 04:05:47;;;;;;;9.27;5.78;;;;;;;-146.58;100.00;69501.63;4992818;28;20031;-60
2022/08/22 04:08:45;;;;;;;27.17;8.40;;;;;;;-146.58;100.00;69501.63;4994470;28;20116;-60
2022/08/22 04:12:07;;;;;;;8.18;5.80;;;;;;;-146.58;100.00;69501.63;4993445;28;20125;-58
2022/08/22 04:14:58;;;;;;;17.88;7.15;;;;;;;-146.58;100.00;69501.63;4992819;28;20788;-64
2022/08/22 04:17:51;;;;;;;14.07;6.30;;;;;;;-146.58;100.00;69501.63;4990846;28;20121;-64
2022/08/22 04:20:48;;;;;;;10.90;5.85;;;;;;;-146.58;100.00;69501.63;4990108;28;20046;-63
2022/08/22 04:23:27;;;;;;;12.25;6.78;;;;;;;-146.58;100.00;69501.63;4993459;28;20080;-63
2022/08/22 04:25:58;;;;;;;19.88;8.30;;;;;;;-146.58;100.00;69501.63;4973503;28;20041;-63
2022/08/22 04:28:46;;;;;;;11.90;7.30;;;;;;;-146.58;100.00;69501.63;4974351;28;20027;-63
2022/08/22 04:31:16;;;;;;;14.80;7.25;;;;;;;-146.58;100.00;69501.63;4973404;28;20061;-63
2022/08/22 04:33:59;;;;;;;18.33;8.48;;;;;;;-146.58;100.00;69501.63;4974698;28;20473;-64
2022/08/22 04:36:49;;;;;;;12.38;6.88;;;;;;;-146.58;100.00;69501.63;4973021;28;20499;-63
2022/08/22 04:39:27;;;;;;;21.70;8.45;;;;;;;-146.58;100.00;69501.63;4975225;28;20042;-64
2022/08/22 04:42:13;;;;;;;13.60;7.18;;;;;;;-146.58;100.00;69501.63;4993660;28;20054;-65
2022/08/22 04:45:08;;;;;;;13.98;7.28;;;;;;;-146.58;100.00;69501.63;4973039;28;20138;-64
2022/08/22 04:47:57;;;;;;;15.38;8.20;;;;;;;-146.58;100.00;69501.63;4973962;28;20502;-65
2022/08/22 04:51:02;;;;;;;18.10;6.80;;;;;;;-146.58;100.00;69501.63;4985858;28;20046;-65
2022/08/22 04:53:41;;;;;;;13.52;6.93;;;;;;;-146.58;100.00;69501.63;4972556;28;20116;-65
2022/08/22 04:56:34;;;;;;;14.38;7.30;;;;;;;-146.58;100.00;69501.63;4991847;28;20042;-64
2022/08/22 04:59:06;;;;;;;16.55;7.88;;;;;;;-146.58;100.00;69501.63;4990826;28;20034;-62
2022/08/22 05:01:41;;;;;;;12.68;6.63;;;;;;;-146.58;100.00;69501.63;4990875;28;20022;-62
2022/08/22 05:04:12;;;;;;;11.15;7.47;;;;;;;-146.58;100.00;69501.63;4991380;28;20018;-62
2022/08/22 05:06:42;;;;;;;14.02;8.07;;;;;;;-146.58;100.00;69501.63;4992847;28;20030;-62
2022/08/22 05:09:13;;;;;;;9.00;6.95;;;;;;;-146.58;100.00;69501.63;4989061;28;20022;-61
2022/08/22 05:11:40;;;;;;;21.88;7.90;;;;;;;-146.58;100.00;69501.63;4992553;28;20161;-62
2022/08/22 05:14:17;;;;;;;15.70;6.43;;;;;;;-146.58;100.00;69501.63;4991488;28;20022;-62
2022/08/22 05:16:48;;;;;;;15.07;6.72;;;;;;;-146.58;100.00;69501.63;4992949;28;20026;-61
2022/08/22 05:19:28;;;;;;;9.65;5.93;;;;;;;-146.58;100.00;69501.63;4991434;28;20528;-61
2022/08/22 05:21:55;;;;;;;14.05;6.18;;;;;;;-146.58;100.00;69501.63;4992931;28;20419;-61
2022/08/22 05:24:36;;;;;;;23.90;8.27;;;;;;;-146.58;100.00;69501.63;4991259;28;20057;-61
2022/08/22 05:27:13;;;;;;;14.32;7.03;;;;;;;-146.58;100.00;69501.63;4992678;28;20367;-61
2022/08/22 05:29:42;;;;;;;18.98;8.02;;;;;;;-146.58;100.00;69501.63;4988820;28;20525;-60
2022/08/22 05:32:24;;;;;;;18.13;7.30;;;;;;;-146.58;100.00;69501.63;4992796;28;20037;-62
2022/08/22 05:34:52;;;;;;;21.13;7.30;;;;;;;-146.58;100.00;69501.63;4990064;28;20050;-62
2022/08/22 05:37:24;;;;;;;30.83;8.80;;;;;;;-146.58;100.00;69501.63;4991692;28;20018;-62
2022/08/22 05:39:57;;;;;;;82.10;18.65;;;;;;;-146.58;100.00;69501.63;4990351;28;20053;-61
2022/08/22 05:42:28;;;;;;;47.63;10.88;;;;;;;-146.58;100.00;69501.63;4991009;28;20044;-62
2022/08/22 05:44:54;;;;;;;29.20;10.52;;;;;;;-146.58;100.00;69501.63;4987843;28;20041;-61
2022/08/22 05:47:35;;;;;;;16.13;7.15;;;;;;;-146.58;100.00;69501.63;4992001;28;20355;-61
2022/08/22 05:50:06;;;;;;;25.50;10.20;;;;;;;-146.58;100.00;69501.63;4990861;28;20061;-62
2022/08/22 05:53:24;;;;;;;15.07;6.75;;;;;;;-146.58;100.00;69501.63;4991235;28;20790;-62
2022/08/22 05:55:58;;;;;;;19.38;7.70;;;;;;;-146.58;100.00;69501.63;4981797;28;20129;-62
2022/08/22 05:58:40;;;;;;;14.15;6.95;;;;;;;-146.58;100.00;69501.63;4992330;28;20069;-62
2022/08/22 06:01:08;;;;;;;16.83;7.63;;;;;;;-146.58;100.00;69501.63;4991123;28;20061;-61
2022/08/22 06:03:44;;;;;;;21.13;8.10;;;;;;;-146.58;100.00;69501.63;4991208;28;20034;-61
2022/08/22 06:06:15;;;;;;;16.20;6.95;;;;;;;-146.58;100.00;69501.63;4990553;28;20466;-61
2022/08/22 06:09:09;;;;;;;12.60;5.68;;;;;;;-146.58;100.00;69501.63;4992409;28;20033;-61
2022/08/22 06:11:43;;;;;;;16.15;6.35;;;;;;;-146.58;100.00;69501.63;4969779;28;20046;-61
2022/08/22 06:14:39;;;;;;;20.75;7.25;;;;;;;-146.58;100.00;69501.63;4991013;28;20445;-61
2022/08/22 06:17:23;;;;;;;12.32;5.20;;;;;;;-146.58;100.00;69501.63;4988954;28;20038;-61
2022/08/22 06:19:51;;;;;;;16.30;5.63;;;;;;;-146.58;100.00;69501.63;4990590;28;20497;-61
2022/08/22 06:22:23;;;;;;;26.25;6.97;;;;;;;-146.58;100.00;69501.63;4992267;28;20060;-61
2022/08/22 06:24:50;;;;;;;21.38;8.13;;;;;;;-146.58;100.00;69501.63;4990958;28;20445;-62
2022/08/22 06:27:21;;;;;;;16.63;6.93;;;;;;;-146.58;100.00;69501.63;4991579;28;20041;-61
2022/08/22 06:29:53;;;;;;;10.63;5.00;;;;;;;-146.58;100.00;69501.63;4990478;28;20053;-61
2022/08/22 06:32:26;;;;;;;17.38;6.47;;;;;;;-146.58;100.00;69501.63;4992428;28;20057;-61
2022/08/22 06:34:59;;;;;;;12.85;5.78;;;;;;;-146.58;100.00;69501.63;4997936;28;20057;-59
2022/08/22 06:37:33;;;;;;;13.73;5.03;;;;;;;-146.58;100.00;69501.63;5011390;28;20041;-59
2022/08/22 06:40:01;;;;;;;19.63;5.47;;;;;;;-146.58;100.00;69501.63;4997992;28;20049;-59
2022/08/22 06:42:30;;;;;;;13.77;5.57;;;;;;;-146.58;100.00;69501.63;4991496;28;20072;-60
2022/08/22 06:44:56;;;;;;;10.77;5.75;;;;;;;-146.58;100.00;69501.63;4990515;28;20030;-59
2022/08/22 06:47:46;;;;;;;22.38;5.80;;;;;;;-146.58;100.00;69501.63;4991505;28;20050;-60
2022/08/22 06:50:17;;;;;;;11.95;5.18;;;;;;;-146.58;100.00;69501.63;4990502;28;20428;-59
2022/08/22 06:53:16;;;;;;;17.80;6.38;;;;;;;-146.58;100.00;69501.63;4991369;28;20026;-60
2022/08/22 06:55:55;;;;;;;21.27;8.73;;;;;;;-146.58;100.00;69501.63;4989427;28;20078;-60
2022/08/22 06:58:32;;;;;;;25.20;9.02;;;;;;;-146.58;100.00;69501.63;4991878;28;20026;-58
2022/08/22 07:01:05;;;;;;;13.45;9.55;;;;;;;-146.58;100.00;69501.63;4990274;28;20427;-59
2022/08/22 07:03:37;;;;;;;21.60;8.50;;;;;;;-146.58;100.00;69501.63;4990843;28;20034;-60
2022/08/22 07:06:03;;;;;;;17.10;8.38;;;;;;;-146.58;100.00;69501.63;4990191;28;20469;-61
2022/08/22 07:08:31;;;;;;;17.27;7.50;;;;;;;-146.58;100.00;69501.63;4991464;28;20497;-60
2022/08/22 07:11:16;;;;;;;16.00;7.65;;;;;;;-146.58;100.00;69501.63;4989648;28;20038;-60
2022/08/22 07:13:53;;;;;;;18.85;9.25;;;;;;;-146.58;100.00;69501.63;4991685;28;20034;-61
2022/08/22 07:16:31;;;;;;;26.60;8.55;;;;;;;-146.58;100.00;69501.63;4990267;28;20042;-61
2022/08/22 07:18:57;;;;;;;19.42;7.35;;;;;;;-146.58;100.00;69501.63;4989851;28;20037;-60
2022/08/22 07:21:26;;;;;;;15.63;6.97;;;;;;;-146.58;100.00;69501.63;4991710;28;20035;-59
2022/08/22 07:23:53;;;;;;;14.75;6.88;;;;;;;-146.58;100.00;69501.63;4990014;28;20038;-60
2022/08/22 07:26:46;;;;;;;10.95;5.95;;;;;;;-146.58;100.00;69501.63;4990861;28;20524;-60
2022/08/22 07:29:25;;;;;;;12.07;7.45;;;;;;;-146.58;100.00;69501.63;4989868;28;20096;-59
2022/08/22 07:32:09;;;;;;;12.68;6.18;;;;;;;-146.58;100.00;69501.63;4991303;28;20153;-59
2022/08/22 07:35:27;;;;;;;12.38;5.40;;;;;;;-146.58;100.00;69501.63;4989753;28;20121;-59
2022/08/22 07:38:14;;;;;;;16.63;6.18;;;;;;;-146.58;100.00;69501.63;4991110;28;20041;-59
2022/08/22 07:40:59;;;;;;;20.55;6.45;;;;;;;-146.58;100.00;69501.63;4989304;28;20058;-59
2022/08/22 07:43:37;;;;;;;13.82;5.18;;;;;;;-146.58;100.00;69501.63;4991179;28;20029;-60
2022/08/22 07:46:18;;;;;;;16.90;6.13;;;;;;;-146.58;100.00;69501.63;4990030;28;20058;-59
2022/08/22 07:48:56;;;;;;;12.15;6.07;;;;;;;-146.58;100.00;69501.63;4990796;28;20088;-60
2022/08/22 07:51:34;;;;;;;19.33;4.80;;;;;;;-146.58;100.00;69501.63;4990073;28;20545;-60
2022/08/22 07:54:05;;;;;;;20.30;8.65;;;;;;;-146.58;100.00;69501.63;4989734;28;20057;-59
2022/08/22 07:56:38;;;;;;;11.60;5.25;;;;;;;-146.58;100.00;69501.63;4991377;28;20563;-60
2022/08/22 07:59:13;;;;;;;14.95;5.45;;;;;;;-146.58;100.00;69501.63;4990109;28;20031;-61
2022/08/22 08:01:45;;;;;;;14.80;4.53;;;;;;;-146.58;100.00;69501.63;4995109;28;20026;-60
2022/08/22 08:04:17;;;;;;;9.68;6.35;;;;;;;-146.58;100.00;69501.63;4997499;28;20034;-61
2022/08/22 08:06:50;;;;;;;11.13;5.18;;;;;;;-146.58;100.00;69501.63;5010372;28;20026;-60
2022/08/22 08:09:18;;;;;;;15.27;4.13;;;;;;;-146.58;100.00;69501.63;5009110;28;20073;-60
2022/08/22 08:11:44;;;;;;;12.55;4.95;;;;;;;-146.58;100.00;69501.63;5010278;28;20084;-61
2022/08/22 08:14:13;;;;;;;9.13;4.75;;;;;;;-146.58;100.00;69501.63;5011497;28;20552;-60
2022/08/22 08:16:53;;;;;;;16.13;4.80;;;;;;;-146.58;100.00;69501.63;5013566;28;20026;-60
2022/08/22 08:19:20;;;;;;;11.00;4.07;;;;;;;-146.58;100.00;69501.63;5012273;28;20112;-60
2022/08/22 08:21:52;;;;;;;10.98;3.78;;;;;;;-146.58;100.00;69501.63;5013729;28;20029;-60
2022/08/22 08:24:45;;;;;;;11.13;3.92;;;;;;;-146.58;100.00;69501.63;5012331;28;20034;-60
2022/08/22 08:30:15;;;;;;;10.32;4.25;;;;;;;-146.58;100.00;69501.63;5012740;28;20056;-61
2022/08/22 08:32:43;;;;;;;8.82;4.15;;;;;;;-146.58;100.00;69501.63;5013263;28;20038;-60
2022/08/22 08:35:22;;;;;;;11.48;3.45;;;;;;;-146.58;100.00;69501.63;5012490;28;20092;-60
2022/08/22 08:37:53;;;;;;;11.82;4.25;;;;;;;-146.58;100.00;69501.63;5013564;28;20022;-60
2022/08/22 08:40:30;;;;;;;13.48;4.47;;;;;;;-146.58;100.00;69501.63;5012233;28;20041;-60
2022/08/22 08:43:30;;;;;;;12.03;4.30;;;;;;;-146.58;100.00;69501.63;5013541;28;20045;-60
2022/08/22 08:46:13;;;;;;;10.85;4.43;;;;;;;-146.58;100.00;69501.63;5012008;28;20903;-60
2022/08/22 08:48:57;;;;;;;15.15;5.25;;;;;;;-146.58;100.00;69501.63;5013440;28;20447;-60
2022/08/22 08:51:51;;;;;;;12.93;4.22;;;;;;;-146.58;100.00;69501.63;5012545;28;20405;-60
2022/08/22 08:54:54;;;;;;;9.57;4.07;;;;;;;-146.58;100.00;69501.63;5011673;28;20092;-60
2022/08/22 08:57:48;;;;;;;5.38;3.42;;;;;;;-146.58;100.00;69501.63;5013861;28;20030;-60
2022/08/22 09:00:20;;;;;;;12.35;3.67;;;;;;;-146.58;100.00;69501.63;5011960;28;20431;-60
2022/08/22 09:02:56;;;;;;;15.52;4.20;;;;;;;-146.58;100.00;69501.63;5012719;28;20033;-60
2022/08/22 09:05:34;;;;;;;11.85;4.85;;;;;;;-146.58;100.00;69501.63;5012049;28;20042;-60
2022/08/22 09:08:30;;;;;;;14.90;5.40;;;;;;;-146.58;100.00;69501.63;5012752;28;20022;-60
2022/08/22 09:11:30;;;;;;;9.32;3.08;;;;;;;-146.58;100.00;69501.63;5011727;28;20464;-60
2022/08/22 09:14:18;;;;;;;10.02;3.75;;;;;;;-146.58;100.00;69501.63;5011954;28;20033;-61
2022/08/22 09:17:08;;;;;;;13.18;5.43;;;;;;;-146.58;100.00;69501.63;5012871;28;20037;-61
2022/08/22 09:20:10;;;;;;;10.13;4.28;;;;;;;-146.58;100.00;69501.63;5011358;28;20567;-61
2022/08/22 09:23:13;;;;;;;11.65;4.72;;;;;;;-146.58;100.00;69501.63;5012719;28;20429;-61
2022/08/22 09:25:48;;;;;;;13.02;3.67;;;;;;;-146.58;100.00;69501.63;5010476;28;20494;-61
2022/08/22 09:28:28;;;;;;;19.30;5.85;;;;;;;-146.58;100.00;69501.63;5013026;28;20060;-61
2022/08/22 09:31:22;;;;;;;10.52;3.95;;;;;;;-146.58;100.00;69501.63;5010884;28;20053;-61
2022/08/22 09:33:58;;;;;;;11.80;4.07;;;;;;;-146.58;100.00;69501.63;5012536;28;20037;-60
2022/08/22 09:36:32;;;;;;;13.52;4.10;;;;;;;-146.58;100.00;69501.63;5010866;28;20038;-60
2022/08/22 09:39:04;;;;;;;14.68;4.60;;;;;;;-146.58;100.00;69501.63;5011161;28;20046;-60
2022/08/22 09:41:58;;;;;;;11.95;4.57;;;;;;;-146.58;100.00;69501.63;5012464;28;20381;-61
2022/08/22 09:44:32;;;;;;;17.10;4.43;;;;;;;-146.58;100.00;69501.63;5011024;28;20152;-61
2022/08/22 09:47:25;;;;;;;9.38;4.00;;;;;;;-146.58;100.00;69501.63;5012003;28;20543;-61
2022/08/22 09:50:03;;;;;;;13.68;4.85;;;;;;;-146.58;100.00;69501.63;5010925;28;20045;-61
2022/08/22 09:52:50;;;;;;;9.18;3.92;;;;;;;-146.58;100.00;69501.63;5011943;28;20025;-60
2022/08/22 09:55:37;;;;;;;22.30;6.47;;;;;;;-146.58;100.00;69501.63;5010877;28;20042;-60
2022/08/22 09:58:22;;;;;;;10.90;4.03;;;;;;;-146.58;100.00;69501.63;5012653;28;20030;-60
2022/08/22 10:00:54;;;;;;;10.13;4.38;;;;;;;-146.58;100.00;69501.63;5010251;28;20037;-60
2022/08/22 10:04:23;;;;;;;8.98;3.58;;;;;;;-146.58;100.00;69501.63;5012431;28;20050;-60
2022/08/22 10:07:05;;;;;;;13.82;4.28;;;;;;;-146.58;100.00;69501.63;5010531;28;20045;-61
2022/08/22 10:09:55;;;;;;;13.82;3.67;;;;;;;-146.58;100.00;69501.63;5010458;28;20042;-61
2022/08/22 10:12:29;;;;;;;10.02;4.90;;;;;;;-146.58;100.00;69501.63;5012013;28;20076;-61
2022/08/22 10:15:17;;;;;;;15.40;4.53;;;;;;;-146.58;100.00;69501.63;5010298;28;20069;-61
2022/08/22 10:18:00;;;;;;;10.82;4.95;;;;;;;-146.58;100.00;69501.63;5012044;28;20452;-61
2022/08/22 10:21:13;;;;;;;12.07;4.10;;;;;;;-146.58;100.00;69501.63;5010256;28;20124;-61
2022/08/22 10:23:43;;;;;;;10.70;6.07;;;;;;;-146.58;100.00;69501.63;4994643;28;20038;-61
2022/08/22 10:26:32;;;;;;;12.23;3.97;;;;;;;-146.58;100.00;69501.63;5010261;28;20046;-60
2022/08/22 10:29:21;;;;;;;11.27;4.78;;;;;;;-146.58;100.00;69501.63;5010323;28;20030;-60
2022/08/22 10:31:53;;;;;;;12.80;4.38;;;;;;;-146.58;100.00;69501.63;5011416;28;20104;-61
2022/08/22 10:34:24;;;;;;;7.25;4.57;;;;;;;-146.58;100.00;69501.63;5010480;28;20044;-61
2022/08/22 10:37:03;;;;;;;9.55;5.03;;;;;;;-146.58;100.00;69501.63;5006645;28;20033;-61
2022/08/22 10:39:40;;;;;;;14.27;5.00;;;;;;;-146.58;100.00;69501.63;4990269;28;20070;-61
2022/08/22 10:42:18;;;;;;;7.85;4.70;;;;;;;-146.58;100.00;69501.63;4992046;28;20022;-61
2022/08/22 10:45:09;;;;;;;12.93;4.38;;;;;;;-146.58;100.00;69501.63;4989899;28;20046;-60
2022/08/22 10:47:52;;;;;;;18.30;5.68;;;;;;;-146.58;100.00;69501.63;4991595;28;20018;-60
2022/08/22 10:50:25;;;;;;;9.40;4.22;;;;;;;-146.58;100.00;69501.63;4990417;28;20105;-60
2022/08/22 10:53:28;;;;;;;12.32;4.70;;;;;;;-146.58;100.00;69501.63;4991565;28;20030;-60
2022/08/22 10:55:46;;;;;;;7.00;4.25;;;;;;;-146.58;100.00;69501.63;4989728;28;20050;-60
2022/08/22 10:58:19;;;;;;;13.32;4.22;;;;;;;-146.58;100.00;69501.63;4990743;28;20050;-60
2022/08/22 11:00:52;;;;;;;13.27;3.95;;;;;;;-146.58;100.00;69501.63;4989515;28;20060;-60
2022/08/22 11:03:51;;;;;;;14.45;4.15;;;;;;;-146.58;100.00;69501.63;4991671;28;20022;-60
2022/08/22 11:07:09;;;;;;;12.20;4.03;;;;;;;-146.58;100.00;69501.63;4969600;28;20053;-60
2022/08/22 11:09:41;;;;;;;10.05;3.92;;;;;;;-146.58;100.00;69501.63;4968216;28;20039;-60
2022/08/22 11:12:33;;;;;;;12.57;3.67;;;;;;;-146.58;100.00;69501.63;4990468;28;20038;-60
2022/08/22 11:15:17;;;;;;;9.15;4.03;;;;;;;-146.58;100.00;69501.63;4990141;28;20034;-60
2022/08/22 11:17:42;;;;;;;8.52;3.55;;;;;;;-146.58;100.00;69501.63;4991604;28;20176;-60
2022/08/22 11:20:39;;;;;;;15.55;4.32;;;;;;;-146.58;100.00;69501.63;4990138;28;20561;-60
2022/08/22 11:23:34;;;;;;;8.70;3.50;;;;;;;-146.58;100.00;69501.63;4991095;28;20374;-60
2022/08/22 11:26:22;;;;;;;8.18;3.22;;;;;;;-146.58;100.00;69501.63;4990080;28;20088;-60
2022/08/22 11:28:59;;;;;;;8.27;2.97;;;;;;;-146.58;100.00;69501.63;4990779;28;20029;-60
2022/08/22 11:31:46;;;;;;;5.68;3.35;;;;;;;-146.58;100.00;69501.63;4990013;28;20039;-60
2022/08/22 11:34:29;;;;;;;8.50;2.50;;;;;;;-146.58;100.00;69501.63;4990313;28;20090;-60
2022/08/22 11:37:05;;;;;;;5.05;2.17;;;;;;;-146.58;100.00;69501.63;4991345;28;20045;-60
2022/08/22 11:39:33;;;;;;;8.13;4.07;;;;;;;-146.58;100.00;69501.63;4989928;28;20038;-60
2022/08/22 11:42:22;;;;;;;14.10;4.43;;;;;;;-146.58;100.00;69501.63;4991716;28;20367;-60
2022/08/22 11:44:54;;;;;;;9.38;5.03;;;;;;;-146.58;100.00;69501.63;4989521;28;20069;-60
2022/08/22 11:47:23;;;;;;;15.63;4.55;;;;;;;-146.58;100.00;69501.63;4991399;28;20134;-60
2022/08/22 11:49:56;;;;;;;10.98;2.90;;;;;;;-146.58;100.00;69501.63;4993489;28;20088;-60
2022/08/22 11:52:43;;;;;;;13.32;3.65;;;;;;;-146.58;100.00;69501.63;4994773;28;20028;-60
2022/08/22 11:55:30;;;;;;;8.50;4.23;;;;;;;-146.58;100.00;69501.63;4993636;28;20395;-60
2022/08/22 11:58:25;;;;;;;10.18;3.85;;;;;;;-146.58;100.00;69501.63;4995021;28;20113;-58
2022/08/22 12:00:59;;;;;;;11.68;4.22;;;;;;;-146.58;100.00;69501.63;4985519;28;20038;-59
2022/08/22 12:03:58;;;;;;;15.95;3.75;;;;;;;-146.58;100.00;69501.63;4994785;28;20030;-59
2022/08/22 12:06:35;;;;;;;9.00;3.15;;;;;;;-146.58;100.00;69501.63;4993189;28;20035;-60
2022/08/22 12:09:22;;;;;;;12.02;3.83;;;;;;;-146.58;100.00;69501.63;4993311;28;20037;-59
2022/08/22 12:12:08;;;;;;;9.52;2.88;;;;;;;-146.58;100.00;69501.63;4994367;28;20521;-59
2022/08/22 12:14:55;;;;;;;6.78;3.33;;;;;;;-146.58;100.00;69501.63;4992624;28;20121;-59
2022/08/22 12:18:00;;;;;;;10.98;3.78;;;;;;;-146.58;100.00;69501.63;4994648;28;20022;-59